Low Head, Tasmania

11:09 AM AEDT on December 23, 2014 (GMT +1100)
Deviot | Change Station
CLOSE
Current Station
Personal Weather Station
Location: Deviot, TASMANIA
Elevation: 56 ft
Nearby Weather Stations

Elev 56 ft 41.23 °S, 146.93 °E | Updated 2 seconds ago

Mostly Cloudy
Mostly Cloudy
68.0 °F
Feels Like 68.0 °F
N
6.9
Wind Variable Wind from North
Gusts 6.9 mph

Today
High -- | Low -- °F
--% Chance of Precip.
Yesterday
High -- | Low -- °F
Precip. -- in
5:37 AM 8:45 PM
New Moon, 1% visible
Pressure 29.71 in
Visibility 6.2 miles
Clouds Scattered Clouds 6100 ft
Mostly Cloudy 7600 ft
Dew Point 66 °F
Humidity 92%
Rainfall 0.00 in
Snow Depth Not available.
UV 0 out of 12
Pollen Not available.
Air Quality Not available.
Flu Activity Not available.
METAR YMLT 230000Z AUTO 34013KT 9999 // SCT061 BKN076 22/16 Q1006

More Conditions Fewer Conditions

Pressure 29.71 in
Visibility 6.2 miles
Clouds Scattered Clouds 6100 ft
Mostly Cloudy 7600 ft
Dew Point 66 °F
Humidity 92%
Rainfall 0.00 in
Snow Depth Not available.
UV 0 out of 12
Pollen Not available.
Air Quality Not available.
Flu Activity Not available.
METAR YMLT 230000Z AUTO 34013KT 9999 // SCT061 BKN076 22/16 Q1006

More Conditions Fewer Conditions

10-Day Weather Forecast

Almanac

Astronomy

Dec. 23, 2014 Rise Set
Actual Time
Civil Twilight
Nautical Twilight
Astronomical Twilight
Moon
Length of Visible Light
Length of Day
Tomorrow will be .
, % of the Moon is Illuminated

Today's Extremes

Country Highs Country Lows

Community

WunderPhotos

Upload Photos

1,779,732 photos uploaded!

WunderBlogs® & News

Nearby

Air Quality

  Air Quality AQ Index Pollutant
Not available.

Snow Depth

Station Depth Elevation

Earthquake Activity

City Distance Mag. Time & Date
Minimum magnitude displayed is 2.5.

Coastal Water Temperatures

Place Temperature

Nearby Weather Stations